• Join FlightAware (Why Join?)
  • Login
  • US Flag GB Flag 
19:15 EDT


 

Airport Tracker/Info


-or-


 

Live Flight TrackerFlight Track Log ✈ LIA553 ✈ 17-May-2013 ✈ TQPF / AXA - TAPA / ANU

Flight Track Log - Related Links

Times and Time Zones

All times are in EDT time to prevent confusion due to time zone crossing. See the LIA553 flight status page for this flight to view local times or setup timezone preferences in your user account.

Time Position Orientation Groundspeed Altitude Reporting Facility
EDT Latitude Longitude Course Direction KTS MPH feet Rate Location/Type
14:59 17.3642 -62.1504 131° Southeast  Level FlightAware Approximate
15:00 17.3199 -62.0882 125° Southeast  Level FlightAware Approximate
15:01 17.2774 -62.0244 125° Southeast  Level FlightAware Approximate
15:02 17.2338 -61.9617 128° Southeast  Level FlightAware Approximate
15:03 17.1880 -61.9006 128° Southeast  Level FlightAware Approximate
15:04 17.1427 -61.8391 125° Southeast  Level FlightAware Approximate
15:05 17.1367 -61.7927 90° East  Level Estimated
15:06 17.1367 -61.7927 90° East  Level Estimated
15:07 17.1367 -61.7927 90° East  Level Estimated
15:08 17.1367 -61.7927 90° East  Level Estimated
15:09 17.1367 -61.7927 90° East  Level Estimated
15:10 17.1367 -61.7927 90° East  Level Estimated
15:11 17.1367 -61.7927 90° East  Level Estimated
15:12 17.1367 -61.7927 90° East  Level Estimated
15:13 17.1367 -61.7927 90° East  Level Estimated
15:14 17.1367 -61.7927 90° East  Level Estimated
15:15 17.1367 -61.7927 90° East  Level Estimated
15:16 17.1367 -61.7927 90° East  Level Estimated
15:17 17.1367 -61.7927 90° East  Level Estimated
15:18 17.1367 -61.7927 90° East  Level Estimated
15:19 17.1367 -61.7927 90° East  Level Estimated
15:20 17.1367 -61.7927 90° East  Level Estimated
15:21 17.1367 -61.7927 90° East  Level Estimated